createdAt,value
2022-10-26T00:00:52.359Z,98846.97
2022-10-26T00:03:19.603Z,98854.22
2022-10-26T00:05:46.657Z,98844.06
2022-10-26T00:08:13.487Z,98836.31
2022-10-26T00:10:40.604Z,98850.72
2022-10-26T00:13:12.315Z,98855.19
2022-10-26T00:15:42.788Z,98831.50
2022-10-26T00:18:10.168Z,98858.03
2022-10-26T00:20:36.874Z,98861.56
2022-10-26T00:23:03.567Z,98846.72
2022-10-26T00:25:30.141Z,98847.56
2022-10-26T00:27:56.759Z,98851.16
2022-10-26T00:30:23.535Z,98856.47
2022-10-26T00:32:50.056Z,98854.78
2022-10-26T00:35:23.055Z,98857.44
2022-10-26T00:37:56.442Z,98854.78
2022-10-26T00:40:27.971Z,98849.59
2022-10-26T00:42:54.548Z,98854.91
2022-10-26T00:45:25.022Z,98855.88
2022-10-26T00:48:10.031Z,98844.28
2022-10-26T00:50:42.690Z,98818.09
2022-10-26T00:53:11.284Z,98848.88
2022-10-26T00:55:42.484Z,98854.19
2022-10-26T00:58:10.472Z,98854.19
2022-10-26T01:00:37.763Z,98856.00
2022-10-26T01:03:09.616Z,98826.06
2022-10-26T01:05:40.099Z,98851.53
2022-10-26T01:08:08.659Z,98844.56
2022-10-26T01:10:37.833Z,98849.00
2022-10-26T01:13:05.586Z,98827.91
2022-10-26T01:16:21.767Z,98851.66
2022-10-26T01:18:59.897Z,98849.97
2022-10-26T01:21:54.250Z,98852.75
2022-10-26T01:24:52.985Z,98831.75
2022-10-26T01:27:30.664Z,98846.59
2022-10-26T01:30:19.828Z,98848.41
2022-10-26T01:33:02.596Z,98848.41
2022-10-26T01:35:34.369Z,98849.25
2022-10-26T01:38:11.049Z,98848.41
2022-10-26T01:40:50.045Z,98837.91
2022-10-26T01:43:18.420Z,98852.75
2022-10-26T01:45:48.029Z,98855.53
2022-10-26T01:48:19.063Z,98844.03
2022-10-26T01:50:48.018Z,98844.03
2022-10-26T01:53:15.973Z,98841.78
2022-10-26T01:55:49.380Z,98845.88
2022-10-26T01:58:43.275Z,98845.03
2022-10-26T02:01:12.743Z,98838.88
2022-10-26T02:03:39.331Z,98842.47
2022-10-26T02:06:16.880Z,98837.16
2022-10-26T02:08:58.208Z,98844.31
2022-10-26T02:11:37.676Z,98849.63
2022-10-26T02:14:18.347Z,98844.44
2022-10-26T02:16:54.119Z,98847.91
2022-10-26T02:19:33.112Z,98849.75
2022-10-26T02:22:14.459Z,98831.41
2022-10-26T02:24:42.577Z,98856.97
2022-10-26T02:27:15.961Z,98835.88
2022-10-26T02:29:44.352Z,98856.16
2022-10-26T02:32:12.064Z,98858.91
2022-10-26T02:34:44.334Z,98857.94
2022-10-26T02:37:13.546Z,98853.59
2022-10-26T02:39:41.789Z,98854.56
2022-10-26T02:42:09.427Z,98825.75
2022-10-26T02:44:47.344Z,98853.84
2022-10-26T02:47:14.447Z,98853.38
2022-10-26T02:49:41.211Z,98858.28
2022-10-26T02:52:15.529Z,98870.72
2022-10-26T02:54:50.017Z,98850.59
2022-10-26T02:57:24.721Z,98871.81
2022-10-26T02:59:52.795Z,98857.69
2022-10-26T03:02:20.656Z,98869.28
2022-10-26T03:04:50.101Z,98869.16
2022-10-26T03:07:24.269Z,98857.31
2022-10-26T03:09:51.688Z,98865.06
2022-10-26T03:14:33.218Z,98863.38
2022-10-26T03:16:59.972Z,98875.69
2022-10-26T03:19:26.506Z,98877.47
2022-10-26T03:24:07.364Z,98877.59
2022-10-26T03:26:33.996Z,98876.88
2022-10-26T03:29:00.517Z,98875.16
2022-10-26T03:31:27.408Z,98870.00
2022-10-26T03:33:53.890Z,98879.78
2022-10-26T03:36:20.512Z,98884.22
2022-10-26T03:38:47.028Z,98881.69
2022-10-26T03:41:13.556Z,98882.53
2022-10-26T03:43:40.087Z,98886.25
2022-10-26T03:46:06.861Z,98886.25
2022-10-26T03:48:33.344Z,98883.75
2022-10-26T03:50:59.987Z,98882.03
2022-10-26T03:53:27.101Z,98883.00
2022-10-26T03:55:53.684Z,98886.66
2022-10-26T03:58:20.292Z,98882.28
2022-10-26T04:00:47.792Z,98882.38
2022-10-26T04:03:14.285Z,98886.03
2022-10-26T04:05:40.961Z,98886.03
2022-10-26T04:08:08.863Z,98886.03
2022-10-26T04:10:35.568Z,98886.13
2022-10-26T04:13:02.149Z,98876.25
2022-10-26T04:15:29.255Z,98881.81
2022-10-26T04:18:00.424Z,98889.44
2022-10-26T04:20:28.604Z,98879.66
2022-10-26T04:23:04.249Z,98882.66
2022-10-26T04:25:33.235Z,98884.22
2022-10-26T04:28:03.261Z,98884.13
2022-10-26T04:30:30.564Z,98891.84
2022-10-26T04:32:57.083Z,98886.44
2022-10-26T04:35:23.946Z,98890.88
2022-10-26T04:37:50.525Z,98889.78
2022-10-26T04:40:17.112Z,98894.16
2022-10-26T04:42:48.104Z,98894.88
2022-10-26T04:45:16.262Z,98867.72
2022-10-26T04:47:43.069Z,98893.06
2022-10-26T04:50:11.553Z,98889.44
2022-10-26T04:52:38.345Z,98885.22
2022-10-26T04:55:06.316Z,98892.84
2022-10-26T04:57:33.736Z,98893.78
2022-10-26T05:00:01.373Z,98881.00
2022-10-26T05:02:29.201Z,98898.25
2022-10-26T05:04:55.921Z,98896.56
2022-10-26T05:07:22.566Z,98895.59
2022-10-26T05:09:49.136Z,98898.38
2022-10-26T05:12:15.766Z,98898.25
2022-10-26T05:14:42.451Z,98899.22
2022-10-26T05:17:08.937Z,98896.56
2022-10-26T05:19:35.484Z,98899.31
2022-10-26T05:22:02.041Z,98900.28
2022-10-26T05:24:28.571Z,98909.94
2022-10-26T05:26:55.246Z,98904.75
2022-10-26T05:29:21.916Z,98905.72
2022-10-26T05:31:48.396Z,98910.41
2022-10-26T05:34:14.952Z,98908.03
2022-10-26T05:36:41.910Z,98903.06
2022-10-26T05:39:08.500Z,98913.91
2022-10-26T05:41:34.990Z,98917.78
2022-10-26T05:44:01.660Z,98923.06
2022-10-26T05:46:28.176Z,98926.81
2022-10-26T05:48:54.767Z,98927.81
2022-10-26T05:51:21.364Z,98930.66
2022-10-26T05:53:48.539Z,98929.81
2022-10-26T05:56:20.970Z,98910.81
2022-10-26T05:58:48.723Z,98928.16
2022-10-26T06:01:46.340Z,98931.97
2022-10-26T06:04:36.052Z,98933.03
2022-10-26T06:07:03.291Z,98931.66
2022-10-26T06:09:30.113Z,98948.13
2022-10-26T06:11:56.996Z,98940.91
2022-10-26T06:14:23.717Z,98941.56
2022-10-26T06:16:50.207Z,98938.69
2022-10-26T06:19:54.845Z,98940.25
2022-10-26T06:22:32.793Z,98943.41
2022-10-26T06:25:30.483Z,98943.78
2022-10-26T06:28:19.510Z,98945.03
2022-10-26T06:30:46.180Z,98942.50
2022-10-26T06:33:24.896Z,98945.97
2022-10-26T06:36:07.628Z,98947.66
2022-10-26T06:38:36.231Z,98950.19
2022-10-26T06:41:03.649Z,98951.50
2022-10-26T06:43:34.202Z,98958.97
2022-10-26T06:46:09.976Z,98956.56
2022-10-26T06:48:59.189Z,98962.00
2022-10-26T06:51:27.568Z,98959.50
2022-10-26T06:54:06.901Z,98964.91
2022-10-26T06:56:34.112Z,98970.44
2022-10-26T06:59:08.212Z,98972.56
2022-10-26T07:01:35.060Z,98974.72
2022-10-26T07:04:01.708Z,98974.31
2022-10-26T07:06:28.289Z,98982.78
2022-10-26T07:08:54.960Z,98981.53
2022-10-26T07:11:21.647Z,98977.47
2022-10-26T07:13:49.987Z,98978.03
2022-10-26T07:16:16.584Z,98984.69
2022-10-26T07:18:43.094Z,98987.06
2022-10-26T07:21:10.510Z,98988.53
2022-10-26T07:23:37.039Z,98991.81
2022-10-26T07:26:03.664Z,98969.47
2022-10-26T07:28:30.393Z,98992.13
2022-10-26T07:30:58.460Z,99000.72
2022-10-26T07:33:24.974Z,98988.13
2022-10-26T07:35:52.991Z,99001.88
2022-10-26T07:38:19.872Z,98993.81
2022-10-26T07:40:46.740Z,99002.28
2022-10-26T07:43:13.392Z,99005.47
2022-10-26T07:45:40.674Z,98999.00
2022-10-26T07:48:07.586Z,98987.88
2022-10-26T07:50:34.202Z,98998.81
2022-10-26T07:53:00.760Z,99000.25
2022-10-26T07:55:28.190Z,98996.66
2022-10-26T07:57:55.867Z,98998.13
2022-10-26T08:00:23.008Z,98993.34
2022-10-26T08:02:49.527Z,98976.09
2022-10-26T08:05:16.298Z,98997.72
2022-10-26T08:07:44.630Z,98995.78
2022-10-26T08:12:43.565Z,98994.06
2022-10-26T08:15:10.524Z,98999.03
2022-10-26T08:17:37.066Z,98997.72
2022-10-26T08:20:03.959Z,98988.63
2022-10-26T08:24:58.679Z,98997.69
2022-10-26T08:27:25.584Z,98991.31
2022-10-26T08:32:06.880Z,98998.94
2022-10-26T08:34:33.538Z,98990.00
2022-10-26T08:37:00.094Z,98995.09
2022-10-26T08:39:28.541Z,98995.72
2022-10-26T08:42:11.376Z,98998.25
2022-10-26T08:44:47.829Z,98993.06
2022-10-26T08:47:28.569Z,98994.41
2022-10-26T08:50:03.204Z,98992.50
2022-10-26T08:52:38.537Z,98998.53
2022-10-26T08:55:11.833Z,98987.81
2022-10-26T08:57:41.700Z,98994.69
2022-10-26T09:00:22.629Z,98984.19
2022-10-26T09:02:53.496Z,98989.19
2022-10-26T09:05:42.112Z,98984.69
2022-10-26T09:08:21.293Z,98986.41
2022-10-26T09:11:06.830Z,98987.19
2022-10-26T09:14:04.083Z,98966.09
2022-10-26T09:16:59.636Z,98988.75
2022-10-26T09:20:07.893Z,98994.75
2022-10-26T09:22:57.954Z,98995.63
2022-10-26T09:25:29.617Z,98992.84
2022-10-26T09:28:01.550Z,98987.44
2022-10-26T09:30:30.238Z,98990.00
2022-10-26T09:33:02.429Z,98995.28
2022-10-26T09:36:13.231Z,99000.34
2022-10-26T09:39:01.299Z,98993.97
2022-10-26T09:41:45.392Z,98970.38
2022-10-26T09:44:20.430Z,99007.13
2022-10-26T09:47:36.797Z,98993.00
2022-10-26T09:50:20.265Z,99003.63
2022-10-26T09:52:47.464Z,98990.34
2022-10-26T09:55:14.983Z,98993.97
2022-10-26T09:57:45.592Z,98996.63
2022-10-26T10:00:17.621Z,98998.44
2022-10-26T10:02:47.383Z,98998.44
2022-10-26T10:05:50.382Z,98997.56
2022-10-26T10:08:22.833Z,99004.59
2022-10-26T10:11:13.794Z,98997.56
2022-10-26T10:13:43.274Z,99003.00
2022-10-26T10:16:21.987Z,98976.09
2022-10-26T10:19:00.342Z,98978.63
2022-10-26T10:21:34.909Z,98989.53
2022-10-26T10:24:01.671Z,98994.84
2022-10-26T10:26:28.285Z,98986.00
2022-10-26T10:29:02.566Z,98991.19
2022-10-26T10:31:33.716Z,98987.72
2022-10-26T10:34:00.513Z,98991.19
2022-10-26T10:36:30.136Z,98993.84
2022-10-26T10:38:56.857Z,98985.78
2022-10-26T10:41:32.474Z,98978.91
2022-10-26T10:44:29.807Z,98982.06
2022-10-26T10:47:06.789Z,98981.09
2022-10-26T10:49:34.156Z,98980.97
2022-10-26T10:52:00.708Z,98977.25
2022-10-26T10:54:34.494Z,98978.06
2022-10-26T10:57:01.003Z,98976.28
2022-10-26T10:59:40.192Z,98975.31
2022-10-26T11:02:09.883Z,98974.47
2022-10-26T11:05:13.801Z,98970.03
2022-10-26T11:08:03.381Z,98976.16
2022-10-26T11:10:38.344Z,98983.91
2022-10-26T11:13:17.588Z,98974.13
2022-10-26T11:15:48.645Z,98980.25
2022-10-26T11:18:48.892Z,98974.00
2022-10-26T11:21:31.085Z,98979.31
2022-10-26T11:24:10.859Z,98958.16
2022-10-26T11:26:46.215Z,98980.16
2022-10-26T11:29:25.568Z,98980.03
2022-10-26T11:32:01.495Z,98981.00
2022-10-26T11:34:54.336Z,98980.88
2022-10-26T11:37:27.898Z,98984.41
2022-10-26T11:40:23.131Z,98979.91
2022-10-26T11:43:01.828Z,98975.56
2022-10-26T11:45:32.801Z,98976.44
2022-10-26T11:48:31.851Z,98974.59
2022-10-26T11:51:00.035Z,98970.16
2022-10-26T11:53:34.117Z,98978.97
2022-10-26T11:56:03.571Z,98986.94
2022-10-26T11:58:32.499Z,98982.44
2022-10-26T12:01:09.653Z,98981.50
2022-10-26T12:03:50.976Z,98978.97
2022-10-26T12:06:24.893Z,98980.53
2022-10-26T12:09:02.305Z,98981.41
2022-10-26T12:11:31.753Z,98979.56
2022-10-26T12:14:24.367Z,98986.72
2022-10-26T12:16:57.039Z,98978.84
2022-10-26T12:19:46.313Z,98981.41
2022-10-26T12:22:17.237Z,98980.41
2022-10-26T12:24:45.559Z,98983.94
2022-10-26T12:27:49.205Z,98983.94
2022-10-26T12:30:18.784Z,98982.09
2022-10-26T12:32:45.332Z,98980.41
2022-10-26T12:35:35.121Z,98973.31
2022-10-26T12:38:23.666Z,98980.31
2022-10-26T12:41:05.300Z,98982.09
2022-10-26T12:43:31.962Z,98980.19
2022-10-26T12:46:13.677Z,98973.19
2022-10-26T12:48:44.552Z,98975.84
2022-10-26T12:51:24.697Z,98979.34
2022-10-26T12:54:33.387Z,98980.19
2022-10-26T12:57:05.730Z,98975.00
2022-10-26T12:59:52.936Z,98974.88
2022-10-26T13:02:19.705Z,98978.38
2022-10-26T13:05:07.821Z,98972.97
2022-10-26T13:07:42.614Z,98977.41
2022-10-26T13:10:12.161Z,98973.78
2022-10-26T13:12:49.238Z,98958.47
2022-10-26T13:15:53.253Z,98973.78
2022-10-26T13:18:21.954Z,98976.31
2022-10-26T13:21:13.686Z,98970.06
2022-10-26T13:24:14.056Z,98966.31
2022-10-26T13:27:05.322Z,98979.38
2022-10-26T13:29:33.366Z,98975.75
2022-10-26T13:32:02.868Z,98980.81
2022-10-26T13:34:31.889Z,98977.06
2022-10-26T13:37:10.283Z,98983.13
2022-10-26T13:39:41.490Z,98979.38
2022-10-26T13:42:16.372Z,98959.22
2022-10-26T13:44:46.169Z,98980.03
2022-10-26T13:47:24.018Z,98986.16
2022-10-26T13:49:54.651Z,98974.59
2022-10-26T13:52:40.045Z,98977.97
2022-10-26T13:55:21.634Z,98988.47
2022-10-26T13:58:18.553Z,98981.34
2022-10-26T14:01:13.182Z,98981.25
2022-10-26T14:03:40.968Z,98987.38
2022-10-26T14:06:35.968Z,98986.44
2022-10-26T14:09:06.631Z,98984.50
2022-10-26T14:11:44.441Z,98983.66
2022-10-26T14:14:19.804Z,98979.41
2022-10-26T14:16:47.548Z,98980.63
2022-10-26T14:19:29.041Z,98983.41
2022-10-26T14:21:57.572Z,98982.78
2022-10-26T14:24:45.564Z,98989.03
2022-10-26T14:27:18.237Z,98989.88
2022-10-26T14:29:49.976Z,98988.19
2022-10-26T14:32:32.029Z,98989.16
2022-10-26T14:34:58.613Z,98988.31
2022-10-26T14:37:43.190Z,98983.47
2022-10-26T14:40:18.453Z,98988.44
2022-10-26T14:42:50.776Z,98982.03
2022-10-26T14:45:48.083Z,98994.72
2022-10-26T14:48:35.665Z,98996.53
2022-10-26T14:51:03.905Z,98997.34
2022-10-26T14:53:36.928Z,98999.19
2022-10-26T14:56:05.299Z,98998.19
2022-10-26T14:58:33.947Z,99002.78
2022-10-26T15:01:22.263Z,99008.09
2022-10-26T15:03:58.115Z,99008.19
2022-10-26T15:06:28.490Z,99005.53
2022-10-26T15:09:00.765Z,98985.16
2022-10-26T15:11:28.752Z,99006.53
2022-10-26T15:13:57.316Z,99011.84
2022-10-26T15:16:29.834Z,99012.81
2022-10-26T15:19:11.564Z,99010.28
2022-10-26T15:21:46.289Z,99020.03
2022-10-26T15:24:32.112Z,99021.00
2022-10-26T15:27:02.023Z,99019.28
2022-10-26T15:29:43.180Z,99021.13
2022-10-26T15:32:28.777Z,99028.25
2022-10-26T15:35:18.146Z,99024.03
2022-10-26T15:37:48.543Z,99033.56
2022-10-26T15:40:15.698Z,99030.91
2022-10-26T15:42:45.186Z,99033.78
2022-10-26T15:45:20.370Z,99039.59
2022-10-26T15:47:51.706Z,99042.16
2022-10-26T15:50:22.739Z,99038.41
2022-10-26T15:52:50.267Z,99042.84
2022-10-26T15:55:17.613Z,99049.03
2022-10-26T15:57:44.527Z,99046.47
2022-10-26T16:00:15.853Z,99031.25
2022-10-26T16:02:44.261Z,99046.59
2022-10-26T16:05:16.195Z,99050.19
2022-10-26T16:07:45.312Z,99056.47
2022-10-26T16:10:24.891Z,99057.47
2022-10-26T16:12:52.543Z,99051.28
2022-10-26T16:15:22.373Z,99043.91
2022-10-26T16:17:49.916Z,99059.50
2022-10-26T16:20:27.717Z,99051.63
2022-10-26T16:22:54.627Z,99064.19
2022-10-26T16:25:24.176Z,99064.41
2022-10-26T16:27:51.631Z,99065.50
2022-10-26T16:30:19.827Z,99067.41
2022-10-26T16:32:47.301Z,99065.59
2022-10-26T16:35:15.651Z,99065.81
2022-10-26T16:37:42.499Z,99066.91
2022-10-26T16:40:09.688Z,99068.72
2022-10-26T16:42:36.455Z,99067.16
2022-10-26T16:45:03.581Z,99069.81
2022-10-26T16:47:35.506Z,99073.63
2022-10-26T16:50:03.824Z,99063.59
2022-10-26T16:52:30.530Z,99073.63
2022-10-26T16:54:57.079Z,99073.75
2022-10-26T16:57:24.039Z,99072.03
2022-10-26T16:59:50.736Z,99078.31
2022-10-26T17:02:17.859Z,99083.63
2022-10-26T17:04:44.612Z,99087.13
2022-10-26T17:07:11.204Z,99084.69
2022-10-26T17:09:37.967Z,99093.41
2022-10-26T17:12:05.269Z,99083.97
2022-10-26T17:14:32.638Z,99100.63
2022-10-26T17:16:59.164Z,99098.09
2022-10-26T17:19:25.855Z,99105.22
2022-10-26T17:21:52.353Z,99099.03
2022-10-26T17:24:18.971Z,99095.56
2022-10-26T17:26:45.593Z,99103.63
2022-10-26T17:29:15.627Z,99102.78
2022-10-26T17:34:13.331Z,99103.72
2022-10-26T17:36:40.170Z,99127.72
2022-10-26T17:39:06.739Z,99112.69
2022-10-26T17:41:33.334Z,99121.47
2022-10-26T17:43:59.823Z,99125.06
2022-10-26T17:46:26.956Z,99130.38
2022-10-26T17:48:58.729Z,99133.03
2022-10-26T17:51:26.973Z,99131.34
2022-10-26T17:53:54.361Z,99127.84
2022-10-26T17:56:25.886Z,99137.59
2022-10-26T17:58:57.965Z,99136.88
2022-10-26T18:01:24.988Z,99137.84
2022-10-26T18:03:52.357Z,99143.16
2022-10-26T18:06:19.997Z,99133.47
2022-10-26T18:08:47.068Z,99137.31
2022-10-26T18:11:19.118Z,99141.44
2022-10-26T18:13:48.282Z,99146.88
2022-10-26T18:16:22.258Z,99139.13
2022-10-26T18:18:50.273Z,99134.03
2022-10-26T18:21:19.385Z,99141.88
2022-10-26T18:23:46.727Z,99146.00
2022-10-26T18:26:17.397Z,99153.88
2022-10-26T18:28:44.991Z,99160.88
2022-10-26T18:33:41.289Z,99164.50
2022-10-26T18:36:12.783Z,99168.94
2022-10-26T18:38:40.451Z,99165.44
2022-10-26T18:41:10.274Z,99164.50
2022-10-26T18:43:41.610Z,99167.16
2022-10-26T18:46:11.457Z,99170.63
2022-10-26T18:48:38.773Z,99167.16
2022-10-26T18:51:10.817Z,99173.28
2022-10-26T18:53:37.820Z,99175.09
2022-10-26T18:56:10.166Z,99179.53
2022-10-26T18:58:39.619Z,99147.28
2022-10-26T19:01:17.852Z,99187.41
2022-10-26T19:03:45.802Z,99193.56
2022-10-26T19:06:18.052Z,99190.91
2022-10-26T19:11:02.888Z,99194.50
2022-10-26T19:13:29.480Z,99187.63
2022-10-26T19:16:07.219Z,99194.13
2022-10-26T19:18:39.417Z,99188.91
2022-10-26T19:21:28.175Z,99212.69
2022-10-26T19:23:57.514Z,99200.97
2022-10-26T19:26:33.411Z,99216.28
2022-10-26T19:29:03.621Z,99223.34
2022-10-26T19:33:59.777Z,99221.59
2022-10-26T19:36:27.278Z,99221.69
2022-10-26T19:38:54.674Z,99227.06
2022-10-26T19:41:23.414Z,99223.72
2022-10-26T19:43:50.403Z,99230.78
2022-10-26T19:46:21.035Z,99232.72
2022-10-26T19:48:55.119Z,99232.09
2022-10-26T19:51:22.722Z,99231.97
2022-10-26T19:53:49.566Z,99238.22
2022-10-26T19:56:16.863Z,99241.00
2022-10-26T19:58:44.478Z,99241.97
2022-10-26T20:01:12.923Z,99241.19
2022-10-26T20:03:39.641Z,99248.31
2022-10-26T20:06:11.195Z,99247.47
2022-10-26T20:08:40.353Z,99251.94
2022-10-26T20:11:10.293Z,99231.34
2022-10-26T20:13:40.661Z,99242.38
2022-10-26T20:16:07.990Z,99251.28
2022-10-26T20:18:34.926Z,99247.16
2022-10-26T20:21:01.572Z,99255.75
2022-10-26T20:23:28.198Z,99253.19
2022-10-26T20:25:55.597Z,99251.53
2022-10-26T20:28:23.780Z,99259.47
2022-10-26T20:30:50.342Z,99260.44
2022-10-26T20:33:16.952Z,99261.38
2022-10-26T20:35:43.590Z,99263.16
2022-10-26T20:38:19.524Z,99272.09
2022-10-26T20:40:59.392Z,99217.91
2022-10-26T20:43:27.519Z,99273.16
2022-10-26T20:45:54.671Z,99274.00
2022-10-26T20:48:22.940Z,99276.75
2022-10-26T20:50:55.757Z,99282.91
2022-10-26T20:53:39.869Z,99281.00
2022-10-26T20:56:10.629Z,99289.06
2022-10-26T20:58:58.334Z,99265.72
2022-10-26T21:01:29.175Z,99295.84
2022-10-26T21:03:58.245Z,99290.56
2022-10-26T21:06:25.733Z,99295.97
2022-10-26T21:08:53.939Z,99293.31
2022-10-26T21:11:22.403Z,99286.50
2022-10-26T21:13:49.823Z,99285.66
2022-10-26T21:16:17.279Z,99258.41
2022-10-26T21:18:44.022Z,99286.31
2022-10-26T21:21:10.698Z,99293.41
2022-10-26T21:23:40.018Z,99276.53
2022-10-26T21:26:07.778Z,99296.91
2022-10-26T21:28:41.378Z,99295.09
2022-10-26T21:31:10.481Z,99295.09
2022-10-26T21:33:37.237Z,99297.75
2022-10-26T21:36:06.023Z,99301.34
2022-10-26T21:38:33.676Z,99302.22
2022-10-26T21:41:18.591Z,99307.63
2022-10-26T21:43:48.208Z,99302.34
2022-10-26T21:46:16.107Z,99305.81
2022-10-26T21:48:42.836Z,99311.13
2022-10-26T21:51:17.855Z,99307.63
2022-10-26T21:53:44.883Z,99313.88
2022-10-26T21:56:14.405Z,99312.31
2022-10-26T21:58:41.092Z,99311.31
2022-10-26T22:01:08.729Z,99318.44
2022-10-26T22:03:36.354Z,99328.09
2022-10-26T22:06:03.592Z,99323.75
2022-10-26T22:08:30.762Z,99321.19
2022-10-26T22:10:58.209Z,99321.19
2022-10-26T22:13:25.468Z,99304.00
2022-10-26T22:16:06.458Z,99318.63
2022-10-26T22:18:42.723Z,99293.94
2022-10-26T22:21:10.217Z,99315.25
2022-10-26T22:23:38.905Z,99317.03
2022-10-26T22:26:17.144Z,99323.22
2022-10-26T22:28:45.193Z,99315.44
2022-10-26T22:31:23.221Z,99313.75
2022-10-26T22:33:54.779Z,99297.72
2022-10-26T22:36:22.444Z,99325.00
2022-10-26T22:38:50.306Z,99324.16
2022-10-26T22:41:18.162Z,99320.75
2022-10-26T22:43:44.783Z,99324.03
2022-10-26T22:46:14.334Z,99327.56
2022-10-26T22:48:41.400Z,99327.56
2022-10-26T22:51:13.877Z,99316.72
2022-10-26T22:53:40.823Z,99328.28
2022-10-26T22:56:09.182Z,99336.25
2022-10-26T22:58:36.937Z,99318.09
2022-10-26T23:01:11.046Z,99331.81
2022-10-26T23:03:38.111Z,99327.34
2022-10-26T23:06:08.286Z,99330.75
2022-10-26T23:08:35.233Z,99325.75
2022-10-26T23:11:04.373Z,99341.34
2022-10-26T23:13:31.246Z,99336.88
2022-10-26T23:16:14.685Z,99338.81
2022-10-26T23:18:41.299Z,99339.34
2022-10-26T23:21:09.808Z,99342.72
2022-10-26T23:23:37.070Z,99333.94
2022-10-26T23:26:09.233Z,99317.91
2022-10-26T23:28:36.725Z,99338.06
2022-10-26T23:31:03.447Z,99337.97
2022-10-26T23:33:30.539Z,99343.28
2022-10-26T23:35:57.460Z,99344.97
2022-10-26T23:38:25.186Z,99349.31
2022-10-26T23:40:56.755Z,99348.38
2022-10-26T23:43:24.211Z,99336.91
2022-10-26T23:45:50.960Z,99349.13
2022-10-26T23:48:19.166Z,99348.19
2022-10-26T23:50:48.643Z,99348.91
2022-10-26T23:53:17.891Z,99347.13
2022-10-26T23:55:45.268Z,99349.75
2022-10-26T23:58:12.142Z,99353.25
